Time;durP1;ratioP1;P1;durP2;ratioP2;P2;SDS_P1;SDS_P2;PMS_P1;PMS_P2;Temp;Humidity;BMP_temperature;BMP_pressure;BME280_temperature;BME280_humidity;BME280_pressure;Samples;Min_cycle;Max_cycle;Signal;HPM_P1;HPM_P2
2023/01/30 00:01:45;;;;;;;4.45;3.75;;;21.40;31.10;;;;;;5063337;28;20036;-48
2023/01/30 00:04:12;;;;;;;5.50;4.00;;;21.40;31.10;;;;;;5060698;28;20037;-49
2023/01/30 00:06:39;;;;;;;5.32;4.00;;;21.40;31.20;;;;;;5062378;28;20017;-50
2023/01/30 00:09:05;;;;;;;5.00;4.25;;;21.40;31.30;;;;;;5061314;28;20040;-49
2023/01/30 00:11:32;;;;;;;4.82;3.90;;;21.30;31.20;;;;;;5063738;28;20033;-47
2023/01/30 00:14:00;;;;;;;5.78;4.30;;;21.30;31.30;;;;;;5061195;28;20431;-48
2023/01/30 00:16:26;;;;;;;5.25;4.00;;;21.30;31.30;;;;;;5063872;28;20042;-46
2023/01/30 00:18:52;;;;;;;4.85;4.13;;;21.30;31.30;;;;;;5062739;28;20039;-49
2023/01/30 00:21:17;;;;;;;4.60;4.10;;;21.30;31.40;;;;;;5063796;28;20123;-51
2023/01/30 00:23:44;;;;;;;5.35;4.45;;;21.30;31.40;;;;;;5061629;28;20029;-52
2023/01/30 00:26:10;;;;;;;5.10;4.18;;;21.20;31.40;;;;;;5061965;28;20095;-51
2023/01/30 00:28:38;;;;;;;5.45;3.97;;;21.30;31.50;;;;;;5040066;28;20451;-48
2023/01/30 00:31:04;;;;;;;4.93;3.85;;;21.30;31.60;;;;;;5042366;28;20099;-50
2023/01/30 00:33:32;;;;;;;5.60;4.38;;;21.20;31.50;;;;;;5031704;28;20041;-49
2023/01/30 00:36:00;;;;;;;5.90;4.60;;;21.20;31.60;;;;;;5034466;28;20037;-50
2023/01/30 00:38:27;;;;;;;5.97;4.70;;;21.20;31.60;;;;;;5033946;28;20033;-48
2023/01/30 00:40:53;;;;;;;6.07;4.70;;;21.20;31.70;;;;;;5037968;28;20035;-48
2023/01/30 00:48:59;;;;;;;5.95;4.50;;;21.20;31.80;;;;;;5054580;28;20353;-50
2023/01/30 00:51:25;;;;;;;5.88;3.95;;;21.10;31.80;;;;;;5037646;28;20043;-52
2023/01/30 00:53:52;;;;;;;6.10;4.30;;;21.10;31.90;;;;;;5036960;28;20364;-50
2023/01/30 00:56:20;;;;;;;6.82;4.15;;;21.10;31.90;;;;;;5036420;28;20041;-51
2023/01/30 00:58:46;;;;;;;5.13;4.13;;;21.10;32.00;;;;;;5056162;28;20063;-49
2023/01/30 01:01:13;;;;;;;5.07;3.83;;;21.10;32.00;;;;;;5058617;28;20020;-51
2023/01/30 01:03:39;;;;;;;4.85;4.07;;;21.10;32.10;;;;;;5038597;28;20090;-47
2023/01/30 01:06:05;;;;;;;5.53;3.90;;;21.10;32.10;;;;;;5058960;28;20033;-49
2023/01/30 01:08:31;;;;;;;4.95;4.20;;;21.10;32.20;;;;;;5037190;28;21511;-48
2023/01/30 01:10:57;;;;;;;5.25;3.92;;;21.10;32.20;;;;;;5054853;28;20028;-51
2023/01/30 01:13:24;;;;;;;5.82;3.53;;;21.00;32.30;;;;;;5058544;28;20045;-47
2023/01/30 01:15:50;;;;;;;5.22;3.53;;;21.00;32.40;;;;;;5060310;28;20395;-51
2023/01/30 01:18:16;;;;;;;5.07;3.70;;;21.00;32.50;;;;;;5058360;28;20025;-50
2023/01/30 01:20:42;;;;;;;5.63;4.30;;;21.00;32.50;;;;;;5054514;28;20047;-51
2023/01/30 01:23:10;;;;;;;5.05;3.72;;;21.00;33.10;;;;;;5039818;28;20020;-50
2023/01/30 01:25:36;;;;;;;5.43;3.75;;;21.00;32.50;;;;;;5060348;28;20090;-48
2023/01/30 01:28:02;;;;;;;4.10;3.60;;;21.00;32.60;;;;;;5056968;28;20471;-49
2023/01/30 01:30:28;;;;;;;4.70;3.65;;;21.00;32.60;;;;;;5046288;28;20060;-51
2023/01/30 01:32:55;;;;;;;5.00;3.58;;;21.00;32.60;;;;;;5043801;28;20060;-47
2023/01/30 01:35:21;;;;;;;4.53;3.78;;;21.00;32.70;;;;;;5059068;28;20051;-50
2023/01/30 01:37:47;;;;;;;4.57;3.60;;;21.00;32.70;;;;;;5061797;28;20024;-48
2023/01/30 01:43:24;;;;;;;5.97;3.80;;;21.00;32.80;;;;;;5045456;28;20455;-46
2023/01/30 01:45:56;;;;;;;4.88;3.55;;;20.90;32.80;;;;;;5058894;28;20021;-50
2023/01/30 01:48:29;;;;;;;4.53;3.45;;;20.90;32.80;;;;;;5061243;28;20756;-46
2023/01/30 01:51:02;;;;;;;4.30;3.80;;;20.90;32.90;;;;;;5055431;28;20104;-51
2023/01/30 01:53:35;;;;;;;4.32;3.22;;;20.90;32.90;;;;;;5043076;28;20045;-49
2023/01/30 01:56:02;;;;;;;6.93;3.75;;;20.90;33.00;;;;;;5066303;28;20496;-47
2023/01/30 01:58:38;;;;;;;6.35;3.70;;;20.90;33.00;;;;;;5045998;28;20016;-50
2023/01/30 02:01:05;;;;;;;4.30;3.70;;;20.80;33.00;;;;;;5044644;28;20025;-46
2023/01/30 02:03:36;;;;;;;4.35;3.35;;;20.80;33.10;;;;;;5065153;28;20039;-52
2023/01/30 02:06:03;;;;;;;5.05;3.88;;;20.80;33.10;;;;;;5063518;28;20028;-48
2023/01/30 02:08:34;;;;;;;3.97;3.25;;;20.80;33.10;;;;;;5063583;28;20453;-47
2023/01/30 02:11:15;;;;;;;3.95;3.28;;;20.80;33.20;;;;;;5062272;28;20167;-52
2023/01/30 02:13:41;;;;;;;4.07;3.45;;;20.80;33.20;;;;;;5064088;28;20240;-49
2023/01/30 02:16:08;;;;;;;3.70;3.10;;;20.80;33.30;;;;;;5064565;28;20452;-51
2023/01/30 02:18:38;;;;;;;4.10;3.53;;;20.80;33.90;;;;;;5038017;28;20032;-51
2023/01/30 02:21:25;;;;;;;4.28;3.35;;;20.80;33.40;;;;;;5063716;28;20506;-51
2023/01/30 02:24:15;;;;;;;3.70;3.00;;;20.80;33.40;;;;;;5064721;28;20040;-51
2023/01/30 02:27:03;;;;;;;4.07;2.90;;;20.80;33.40;;;;;;5039272;28;20455;-49
2023/01/30 02:29:34;;;;;;;4.47;2.85;;;20.80;33.50;;;;;;5062430;28;20111;-47
2023/01/30 02:32:15;;;;;;;4.65;2.85;;;20.70;33.50;;;;;;5042050;28;20123;-45
2023/01/30 02:35:00;;;;;;;3.45;2.67;;;20.70;33.60;;;;;;5037864;28;20037;-50
2023/01/30 02:37:35;;;;;;;3.25;2.58;;;20.70;33.70;;;;;;5033918;28;20033;-47
2023/01/30 02:40:20;;;;;;;4.25;2.65;;;20.70;33.70;;;;;;5054460;28;20036;-49
2023/01/30 02:42:58;;;;;;;3.97;2.67;;;20.70;33.80;;;;;;5043532;28;20036;-48
2023/01/30 02:45:35;;;;;;;5.78;2.50;;;20.70;33.80;;;;;;5045123;28;20025;-47
2023/01/30 02:48:29;;;;;;;3.22;2.15;;;20.70;33.90;;;;;;5062368;28;20351;-48
2023/01/30 02:51:08;;;;;;;2.30;2.08;;;20.70;34.00;;;;;;5040141;28;20123;-47
2023/01/30 02:53:36;;;;;;;3.25;2.20;;;20.70;34.10;;;;;;5037884;28;20040;-53
2023/01/30 02:56:03;;;;;;;3.85;2.00;;;20.70;34.20;;;;;;5038631;28;20017;-46
2023/01/30 02:58:41;;;;;;;3.00;2.00;;;20.60;34.20;;;;;;5038999;28;20020;-51
2023/01/30 03:01:24;;;;;;;3.05;1.80;;;20.60;34.30;;;;;;5043018;28;20330;-51
2023/01/30 03:04:17;;;;;;;3.13;1.90;;;20.60;34.30;;;;;;5054914;28;20021;-47
2023/01/30 03:06:52;;;;;;;2.95;2.00;;;20.60;34.40;;;;;;5036111;28;21012;-48
2023/01/30 03:09:29;;;;;;;3.58;2.00;;;20.60;34.50;;;;;;5038997;28;20037;-45
2023/01/30 03:12:30;;;;;;;3.17;1.58;;;20.60;34.60;;;;;;5037468;28;20021;-48
2023/01/30 03:15:16;;;;;;;3.13;1.50;;;20.60;34.70;;;;;;5003507;28;20045;-49
2023/01/30 03:17:45;;;;;;;2.90;1.48;;;20.60;34.70;;;;;;5037238;28;20028;-48
2023/01/30 03:20:18;;;;;;;2.35;1.48;;;20.60;34.80;;;;;;5036182;28;20048;-46
2023/01/30 03:22:44;;;;;;;1.92;1.20;;;20.60;34.90;;;;;;5039391;28;20024;-47
2023/01/30 03:25:16;;;;;;;2.13;1.50;;;20.50;34.90;;;;;;5058512;28;20055;-50
2023/01/30 03:27:43;;;;;;;3.10;1.35;;;20.60;35.00;;;;;;5051546;28;20052;-47
2023/01/30 03:30:10;;;;;;;2.45;1.40;;;20.60;35.00;;;;;;5036320;28;20016;-48
2023/01/30 03:32:36;;;;;;;2.20;1.60;;;20.50;35.00;;;;;;5042163;28;20028;-46
2023/01/30 03:35:03;;;;;;;2.22;1.38;;;20.50;35.10;;;;;;5034408;28;20033;-47
2023/01/30 03:37:30;;;;;;;2.75;1.33;;;20.50;35.10;;;;;;5039212;28;20036;-48
2023/01/30 03:39:57;;;;;;;2.75;1.30;;;20.50;35.10;;;;;;5038522;28;20029;-46
2023/01/30 03:42:24;;;;;;;2.72;1.42;;;20.50;35.20;;;;;;5039575;28;20025;-46
2023/01/30 03:44:50;;;;;;;2.22;1.13;;;20.50;35.20;;;;;;5056561;28;20066;-50
2023/01/30 03:47:16;;;;;;;3.33;1.40;;;20.50;35.20;;;;;;5059831;28;20376;-47
2023/01/30 03:49:42;;;;;;;1.88;1.17;;;20.50;35.30;;;;;;5040112;28;20040;-51
2023/01/30 03:52:08;;;;;;;2.97;1.40;;;20.50;35.30;;;;;;5033323;28;20124;-49
2023/01/30 03:54:34;;;;;;;2.30;1.20;;;20.50;35.40;;;;;;5059317;28;20115;-48
2023/01/30 03:57:00;;;;;;;1.92;1.10;;;20.50;35.40;;;;;;5042633;28;20021;-49
2023/01/30 03:59:25;;;;;;;2.13;1.20;;;20.50;35.50;;;;;;5046106;28;20021;-46
2023/01/30 04:01:59;;;;;;;3.10;1.30;;;20.50;35.50;;;;;;5046218;28;20039;-48
2023/01/30 04:04:25;;;;;;;1.55;0.90;;;20.50;35.50;;;;;;5043838;28;20025;-51
2023/01/30 04:06:51;;;;;;;2.60;1.20;;;20.50;35.60;;;;;;5061447;28;20036;-51
2023/01/30 04:09:18;;;;;;;2.28;1.15;;;20.50;35.60;;;;;;5047610;28;20357;-49
2023/01/30 04:11:47;;;;;;;1.52;0.90;;;20.40;35.60;;;;;;5043531;28;20376;-51
2023/01/30 04:14:13;;;;;;;2.35;1.00;;;20.50;35.70;;;;;;5044185;28;20055;-49
2023/01/30 04:16:57;;;;;;;2.55;1.10;;;20.40;35.70;;;;;;5059556;28;20400;-49
2023/01/30 04:19:46;;;;;;;2.92;1.48;;;20.40;35.80;;;;;;5036072;28;20048;-47
2023/01/30 04:22:13;;;;;;;3.20;1.40;;;20.40;35.80;;;;;;5047673;28;20021;-50
2023/01/30 04:24:38;;;;;;;1.67;0.85;;;20.40;35.80;;;;;;5044575;28;20357;-48
2023/01/30 04:27:05;;;;;;;1.88;0.88;;;20.40;35.80;;;;;;5040658;28;20044;-48
2023/01/30 04:29:38;;;;;;;1.80;1.03;;;20.40;35.90;;;;;;5043101;28;20051;-46
2023/01/30 04:32:07;;;;;;;2.55;1.40;;;20.40;35.90;;;;;;5046381;28;20028;-50
2023/01/30 04:34:35;;;;;;;2.35;1.27;;;20.40;35.90;;;;;;5040862;28;20033;-50
2023/01/30 04:37:01;;;;;;;1.88;1.10;;;20.40;35.90;;;;;;5038346;28;20028;-46
2023/01/30 04:39:28;;;;;;;5.22;1.33;;;20.40;36.00;;;;;;5036165;28;20119;-49
2023/01/30 04:41:53;;;;;;;2.25;1.10;;;20.40;36.00;;;;;;5041828;28;20126;-52
2023/01/30 04:44:19;;;;;;;1.58;1.00;;;20.40;36.00;;;;;;5063545;28;20064;-48
2023/01/30 04:46:56;;;;;;;2.88;1.10;;;20.40;36.10;;;;;;5040440;28;20080;-52
2023/01/30 04:49:22;;;;;;;2.55;1.25;;;20.40;36.10;;;;;;5037215;28;21529;-47
2023/01/30 04:51:49;;;;;;;5.78;1.58;;;20.30;36.10;;;;;;5038351;28;20021;-49
2023/01/30 04:54:14;;;;;;;2.45;1.00;;;20.40;36.20;;;;;;5058979;28;20043;-46
2023/01/30 04:56:40;;;;;;;2.72;0.80;;;20.30;36.20;;;;;;5041620;28;20456;-49
2023/01/30 04:59:06;;;;;;;3.97;1.48;;;20.30;36.20;;;;;;5037897;28;20456;-46
2023/01/30 05:01:38;;;;;;;1.92;1.00;;;20.30;36.20;;;;;;5043671;28;20120;-48
2023/01/30 05:04:05;;;;;;;2.13;1.23;;;20.30;36.20;;;;;;5041322;28;20024;-51
2023/01/30 05:06:32;;;;;;;2.53;1.20;;;20.30;36.30;;;;;;5057132;28;20116;-47
2023/01/30 05:08:58;;;;;;;2.38;1.08;;;20.30;36.30;;;;;;5056828;28;20037;-45
2023/01/30 05:11:27;;;;;;;2.63;1.00;;;20.30;37.00;;;;;;5054146;28;20025;-49
2023/01/30 05:13:53;;;;;;;2.10;1.00;;;20.30;36.40;;;;;;5057067;28;20052;-48
2023/01/30 05:16:20;;;;;;;2.17;0.95;;;20.30;36.40;;;;;;5059550;28;20024;-47
2023/01/30 05:18:46;;;;;;;1.80;0.90;;;20.30;36.40;;;;;;5038392;28;20028;-49
2023/01/30 05:21:20;;;;;;;3.15;1.15;;;20.30;36.50;;;;;;5059755;28;20021;-46
2023/01/30 05:23:46;;;;;;;3.13;1.05;;;20.30;36.50;;;;;;5057308;28;20108;-45
2023/01/30 05:26:12;;;;;;;4.07;1.05;;;20.30;36.50;;;;;;5059565;28;20108;-50
2023/01/30 05:28:39;;;;;;;2.13;1.05;;;20.30;36.60;;;;;;5059783;28;20436;-48
2023/01/30 05:31:11;;;;;;;1.73;0.77;;;20.20;36.50;;;;;;5066756;28;20334;-50
2023/01/30 05:33:37;;;;;;;1.48;0.90;;;20.20;36.50;;;;;;5055134;28;21539;-50
2023/01/30 05:36:04;;;;;;;2.95;1.00;;;20.30;36.60;;;;;;5056580;28;20115;-46
2023/01/30 05:38:30;;;;;;;2.75;1.08;;;20.30;36.60;;;;;;5054375;28;20394;-50
2023/01/30 05:41:04;;;;;;;3.47;1.00;;;20.20;36.50;;;;;;5061354;28;20421;-48
2023/01/30 05:43:31;;;;;;;2.50;0.90;;;20.30;36.60;;;;;;5059525;28;20032;-48
2023/01/30 05:45:59;;;;;;;2.58;1.00;;;20.30;36.60;;;;;;5057377;28;20082;-50
2023/01/30 05:48:27;;;;;;;2.05;0.93;;;20.20;36.50;;;;;;5061349;28;20043;-49
2023/01/30 05:50:55;;;;;;;2.60;1.00;;;20.20;36.50;;;;;;5058744;28;20486;-51
2023/01/30 05:53:22;;;;;;;2.67;1.17;;;20.20;36.50;;;;;;5054409;28;20036;-48
2023/01/30 05:56:00;;;;;;;3.50;1.20;;;20.20;36.50;;;;;;5044308;28;20043;-47
2023/01/30 05:58:27;;;;;;;2.60;0.80;;;20.20;36.50;;;;;;5063747;28;20029;-47
2023/01/30 06:00:53;;;;;;;2.83;1.13;;;20.20;36.50;;;;;;5063465;28;20059;-49
2023/01/30 06:03:19;;;;;;;1.88;0.80;;;20.20;36.50;;;;;;5063548;28;20021;-46
2023/01/30 06:05:45;;;;;;;3.05;1.20;;;20.20;36.40;;;;;;5063421;28;20029;-48
2023/01/30 06:08:11;;;;;;;3.13;0.93;;;20.20;36.40;;;;;;5061856;28;20025;-47
2023/01/30 06:10:37;;;;;;;2.72;0.90;;;20.20;36.30;;;;;;5066089;28;20054;-51
2023/01/30 06:13:03;;;;;;;3.25;1.17;;;20.20;36.30;;;;;;5060783;28;20049;-50
2023/01/30 06:15:29;;;;;;;4.53;1.00;;;20.20;36.20;;;;;;5068190;28;20085;-47
2023/01/30 06:17:55;;;;;;;2.92;1.10;;;20.20;36.10;;;;;;5062174;28;20474;-51
2023/01/30 06:20:20;;;;;;;2.88;0.73;;;20.10;36.00;;;;;;5062519;28;20079;-49
2023/01/30 06:22:48;;;;;;;3.55;1.00;;;20.20;36.00;;;;;;5063805;28;20055;-50
2023/01/30 06:25:14;;;;;;;3.85;1.15;;;20.20;35.90;;;;;;5064352;28;20113;-47
2023/01/30 06:27:40;;;;;;;3.42;1.35;;;20.20;35.80;;;;;;5057041;28;20036;-49
2023/01/30 06:30:06;;;;;;;3.10;1.15;;;20.20;35.70;;;;;;5057445;28;20464;-46
2023/01/30 06:32:32;;;;;;;2.08;0.93;;;20.20;36.20;;;;;;5059920;28;20016;-45
2023/01/30 06:34:58;;;;;;;3.28;1.13;;;20.20;35.50;;;;;;5054288;28;20454;-47
2023/01/30 06:37:24;;;;;;;2.85;1.17;;;20.20;35.50;;;;;;5058382;28;20087;-48
2023/01/30 06:39:49;;;;;;;4.05;1.10;;;20.20;35.40;;;;;;5056904;28;20025;-47
2023/01/30 06:42:15;;;;;;;2.80;1.08;;;20.20;35.40;;;;;;5057576;28;20025;-50
2023/01/30 06:44:41;;;;;;;4.22;1.23;;;20.20;35.30;;;;;;5057415;28;20033;-46
2023/01/30 06:47:07;;;;;;;3.90;0.90;;;20.20;35.30;;;;;;5057461;28;20025;-50
2023/01/30 06:49:33;;;;;;;3.60;1.15;;;20.10;35.20;;;;;;5056926;28;20044;-49
2023/01/30 06:51:58;;;;;;;2.97;0.90;;;20.10;35.10;;;;;;5060648;28;20029;-48
2023/01/30 06:54:24;;;;;;;5.72;1.20;;;20.10;35.10;;;;;;5058439;28;20041;-48
2023/01/30 06:56:50;;;;;;;3.38;1.23;;;20.10;35.10;;;;;;5059285;28;20045;-50
2023/01/30 06:59:16;;;;;;;3.00;1.10;;;20.10;35.00;;;;;;5059280;28;20050;-46
2023/01/30 07:01:42;;;;;;;2.63;1.10;;;20.10;35.00;;;;;;5058278;28;20111;-52
2023/01/30 07:04:07;;;;;;;2.95;1.20;;;20.10;35.00;;;;;;5052642;28;20053;-49
2023/01/30 07:06:33;;;;;;;3.20;0.95;;;20.10;34.90;;;;;;5057301;28;20029;-44
2023/01/30 07:08:59;;;;;;;4.57;1.35;;;20.10;34.80;;;;;;5052479;28;20059;-47
2023/01/30 07:11:25;;;;;;;4.05;1.30;;;20.10;34.80;;;;;;5061291;28;20037;-51
2023/01/30 07:13:51;;;;;;;5.38;1.23;;;20.10;35.00;;;;;;5063746;28;20067;-49
2023/01/30 07:16:18;;;;;;;3.05;0.90;;;20.10;35.60;;;;;;5064545;28;20048;-46
2023/01/30 07:18:44;;;;;;;4.45;1.60;;;20.10;34.80;;;;;;5056093;28;20364;-48
2023/01/30 07:21:10;;;;;;;4.32;1.40;;;20.10;34.70;;;;;;5054783;28;20450;-48
2023/01/30 07:23:36;;;;;;;3.33;1.23;;;20.10;34.70;;;;;;5032792;28;20036;-52
2023/01/30 07:26:05;;;;;;;3.42;1.33;;;20.10;34.60;;;;;;5042045;28;20032;-49
2023/01/30 07:28:31;;;;;;;4.88;1.20;;;20.00;34.50;;;;;;5059255;28;20020;-51
2023/01/30 07:31:00;;;;;;;5.95;1.48;;;20.10;34.50;;;;;;5058636;28;20090;-51
2023/01/30 07:33:26;;;;;;;3.40;1.40;;;20.10;35.20;;;;;;5056299;28;20124;-52
2023/01/30 07:35:55;;;;;;;4.07;1.25;;;20.10;34.50;;;;;;5052894;28;20392;-51
2023/01/30 07:38:21;;;;;;;3.42;1.25;;;20.10;34.50;;;;;;5058184;28;20035;-48
2023/01/30 07:40:47;;;;;;;4.95;1.67;;;20.10;34.40;;;;;;5036379;28;20029;-49
2023/01/30 07:43:13;;;;;;;6.07;1.65;;;20.00;34.30;;;;;;5055062;28;20097;-47
2023/01/30 07:45:46;;;;;;;5.07;1.50;;;20.10;34.30;;;;;;5059862;28;20025;-48
2023/01/30 07:48:15;;;;;;;4.20;1.23;;;20.10;34.30;;;;;;5055590;28;20038;-49
2023/01/30 07:50:42;;;;;;;4.28;1.33;;;20.10;34.30;;;;;;5056428;28;20056;-48
2023/01/30 07:53:11;;;;;;;4.05;1.35;;;20.10;34.40;;;;;;5060991;28;20059;-48
2023/01/30 07:55:37;;;;;;;4.30;1.40;;;20.10;34.40;;;;;;5040093;28;20045;-49
2023/01/30 07:58:03;;;;;;;4.60;1.30;;;20.10;34.50;;;;;;5064560;28;20083;-54
2023/01/30 08:00:29;;;;;;;7.00;1.65;;;20.10;34.60;;;;;;5065876;28;20036;-49
2023/01/30 08:02:55;;;;;;;4.63;1.15;;;20.10;34.70;;;;;;5067176;28;20043;-49
2023/01/30 08:05:21;;;;;;;4.63;1.40;;;20.10;34.70;;;;;;5064608;28;20033;-49
2023/01/30 08:07:47;;;;;;;5.03;1.30;;;20.20;34.80;;;;;;5068416;28;20086;-47
2023/01/30 08:10:13;;;;;;;2.95;0.95;;;20.20;34.80;;;;;;5058309;28;20033;-45
2023/01/30 08:12:39;;;;;;;3.33;1.23;;;20.20;34.90;;;;;;5063148;28;20098;-49
2023/01/30 08:15:07;;;;;;;6.38;1.50;;;20.30;34.80;;;;;;5041328;28;20041;-49
2023/01/30 08:17:33;;;;;;;4.95;1.40;;;20.40;34.90;;;;;;5061155;28;20036;-46
2023/01/30 08:19:59;;;;;;;5.47;1.75;;;20.40;34.80;;;;;;5042215;28;20028;-51
2023/01/30 08:22:24;;;;;;;3.97;1.17;;;20.40;34.80;;;;;;5044759;28;20040;-49
2023/01/30 08:24:50;;;;;;;4.45;1.52;;;20.50;34.80;;;;;;5045508;28;20037;-51
2023/01/30 08:27:16;;;;;;;8.50;1.75;;;20.60;34.80;;;;;;5059706;28;20029;-52
2023/01/30 08:29:43;;;;;;;3.80;1.38;;;20.60;34.70;;;;;;5062312;28;20436;-46
2023/01/30 08:32:09;;;;;;;6.38;1.30;;;20.70;34.70;;;;;;5063572;28;20024;-48
2023/01/30 08:34:35;;;;;;;3.08;1.27;;;20.70;34.70;;;;;;5060590;28;20036;-50
2023/01/30 08:37:01;;;;;;;4.18;1.27;;;20.80;34.60;;;;;;5044342;28;20051;-51
2023/01/30 08:39:27;;;;;;;4.25;1.30;;;20.90;34.60;;;;;;5064682;28;20021;-50
2023/01/30 08:41:53;;;;;;;4.55;1.10;;;20.90;34.60;;;;;;5065691;28;20044;-47
2023/01/30 08:44:19;;;;;;;3.67;1.15;;;21.00;34.70;;;;;;5067618;28;20444;-47
2023/01/30 08:46:45;;;;;;;5.45;1.50;;;21.10;34.60;;;;;;5065605;28;20017;-51
2023/01/30 08:49:11;;;;;;;5.05;1.50;;;21.10;34.60;;;;;;5045732;28;20077;-48
2023/01/30 08:51:37;;;;;;;3.85;1.20;;;21.20;34.50;;;;;;5043661;28;20024;-50
2023/01/30 08:54:06;;;;;;;3.80;1.30;;;21.20;34.40;;;;;;5044352;28;20097;-50
2023/01/30 08:56:32;;;;;;;7.53;1.50;;;21.20;34.30;;;;;;5043212;28;20032;-52
2023/01/30 08:58:58;;;;;;;4.60;1.38;;;21.30;34.20;;;;;;5048654;28;20463;-52
2023/01/30 09:01:24;;;;;;;5.28;1.90;;;21.30;34.10;;;;;;5046830;28;20439;-52
2023/01/30 09:03:50;;;;;;;4.80;1.60;;;21.40;34.00;;;;;;5043943;28;20729;-47
2023/01/30 09:06:15;;;;;;;5.65;2.00;;;21.40;33.90;;;;;;5044869;28;20039;-51
2023/01/30 09:08:41;;;;;;;9.05;2.30;;;21.40;33.70;;;;;;5040886;28;20713;-51
2023/01/30 09:11:09;;;;;;;5.05;1.80;;;21.50;33.60;;;;;;5042380;28;20029;-52
2023/01/30 09:13:35;;;;;;;4.65;1.40;;;21.50;33.60;;;;;;5040600;28;20095;-48
2023/01/30 09:16:02;;;;;;;4.10;1.65;;;21.60;33.50;;;;;;5044090;28;20432;-50
2023/01/30 09:18:28;;;;;;;5.78;1.92;;;21.50;33.40;;;;;;5041584;28;21634;-49
2023/01/30 09:21:02;;;;;;;5.25;1.50;;;21.60;33.40;;;;;;5043778;28;20028;-50
2023/01/30 09:23:28;;;;;;;4.63;1.58;;;21.60;33.30;;;;;;5045698;28;20418;-49
2023/01/30 09:25:54;;;;;;;5.90;1.67;;;21.60;33.20;;;;;;5043836;28;20029;-50
2023/01/30 09:28:20;;;;;;;5.22;1.70;;;21.60;33.20;;;;;;5043113;28;20044;-50
2023/01/30 09:30:45;;;;;;;6.22;1.98;;;21.60;33.30;;;;;;5045168;28;20040;-49
2023/01/30 09:33:15;;;;;;;4.47;1.60;;;21.60;33.20;;;;;;5041067;28;20028;-52
2023/01/30 09:35:41;;;;;;;7.25;2.03;;;21.70;33.30;;;;;;5061432;28;20087;-50
2023/01/30 09:38:07;;;;;;;6.45;1.70;;;21.70;33.20;;;;;;5064120;28;20036;-50
2023/01/30 09:40:38;;;;;;;4.63;1.27;;;21.70;33.10;;;;;;5065510;28;20020;-48
2023/01/30 09:43:20;;;;;;;5.30;1.80;;;21.70;33.00;;;;;;5062190;28;20032;-51
2023/01/30 09:46:21;;;;;;;5.05;1.73;;;21.70;32.80;;;;;;5065867;28;20411;-51
2023/01/30 09:49:12;;;;;;;5.43;1.42;;;21.70;32.60;;;;;;5009447;28;20032;-50
2023/01/30 09:51:52;;;;;;;5.57;1.70;;;21.70;32.50;;;;;;5047843;28;20056;-51
2023/01/30 09:54:23;;;;;;;5.93;1.58;;;21.60;32.40;;;;;;5046469;28;20047;-52
2023/01/30 09:56:55;;;;;;;3.83;1.50;;;21.70;32.30;;;;;;5065380;28;20348;-46
2023/01/30 09:59:29;;;;;;;6.30;2.08;;;21.70;32.20;;;;;;5046695;28;20024;-53
2023/01/30 10:02:34;;;;;;;6.63;1.98;;;21.70;32.20;;;;;;5063236;28;20040;-51
2023/01/30 10:05:02;;;;;;;4.10;1.35;;;21.70;32.00;;;;;;5026660;28;20040;-49
2023/01/30 10:07:41;;;;;;;4.13;1.45;;;21.70;32.00;;;;;;5045607;28;20020;-53
2023/01/30 10:10:10;;;;;;;7.25;1.92;;;21.70;31.90;;;;;;5062395;28;20025;-48
2023/01/30 10:12:45;;;;;;;5.53;1.52;;;21.70;31.80;;;;;;5063237;28;20433;-49
2023/01/30 10:15:41;;;;;;;6.18;1.67;;;21.70;31.80;;;;;;5066723;28;20048;-49
2023/01/30 10:18:35;;;;;;;6.50;1.85;;;21.70;31.70;;;;;;5061101;28;20048;-50
2023/01/30 10:21:20;;;;;;;5.45;1.88;;;21.70;31.70;;;;;;5066569;28;20048;-50
2023/01/30 10:24:04;;;;;;;4.68;1.88;;;21.70;31.70;;;;;;5047844;28;20037;-49
2023/01/30 10:26:30;;;;;;;7.70;1.93;;;21.70;31.60;;;;;;5046202;28;20064;-48
2023/01/30 10:29:25;;;;;;;6.93;2.00;;;21.70;31.60;;;;;;5061495;28;20032;-51
2023/01/30 10:32:18;;;;;;;7.45;1.85;;;21.70;31.50;;;;;;5063645;28;20068;-50
2023/01/30 10:34:50;;;;;;;5.03;1.50;;;21.80;31.50;;;;;;5051903;28;20061;-45
2023/01/30 10:37:31;;;;;;;5.80;1.77;;;21.80;31.50;;;;;;5060788;28;20021;-53
2023/01/30 10:40:03;;;;;;;5.22;1.63;;;21.80;31.50;;;;;;5064054;28;20420;-51
2023/01/30 10:42:37;;;;;;;5.25;1.60;;;21.80;31.50;;;;;;5063165;28;20083;-52
2023/01/30 10:45:19;;;;;;;5.80;1.92;;;21.80;31.40;;;;;;5065205;28;20024;-52
2023/01/30 10:48:00;;;;;;;5.28;1.55;;;21.80;31.40;;;;;;5063422;28;20036;-53
2023/01/30 10:50:56;;;;;;;5.20;1.83;;;21.80;31.40;;;;;;5029837;28;20039;-48
2023/01/30 10:53:42;;;;;;;4.95;1.40;;;21.80;31.30;;;;;;5062534;28;20075;-50
2023/01/30 10:56:20;;;;;;;5.57;1.58;;;21.80;31.30;;;;;;5060709;28;20059;-49
2023/01/30 10:59:04;;;;;;;6.50;1.80;;;21.80;31.30;;;;;;5060944;28;20043;-46
2023/01/30 11:01:43;;;;;;;4.88;1.63;;;21.90;31.30;;;;;;5064092;28;20053;-48
2023/01/30 11:04:25;;;;;;;5.30;1.63;;;21.90;31.20;;;;;;5062963;28;20037;-52
2023/01/30 11:06:53;;;;;;;5.35;1.98;;;21.90;31.20;;;;;;5062807;28;20040;-49
2023/01/30 11:09:20;;;;;;;6.22;1.73;;;21.90;31.10;;;;;;5063375;28;20044;-52
2023/01/30 11:11:51;;;;;;;6.60;2.53;;;21.90;31.10;;;;;;5062603;28;20028;-49
2023/01/30 11:14:17;;;;;;;5.55;1.60;;;21.90;31.10;;;;;;5062121;28;20117;-50
2023/01/30 11:16:54;;;;;;;6.05;1.80;;;22.00;31.10;;;;;;5064996;28;20024;-50
2023/01/30 11:19:36;;;;;;;5.38;1.60;;;22.00;31.00;;;;;;5064561;28;20040;-50
2023/01/30 11:22:04;;;;;;;5.30;1.73;;;22.00;31.00;;;;;;5060316;28;20032;-51
2023/01/30 11:24:44;;;;;;;5.85;1.70;;;22.00;30.90;;;;;;5061796;28;20460;-46
2023/01/30 11:27:26;;;;;;;5.05;1.55;;;22.10;30.90;;;;;;5062172;28;20043;-52
2023/01/30 11:30:02;;;;;;;6.28;1.75;;;22.10;30.90;;;;;;5060348;28;20853;-53
2023/01/30 11:32:28;;;;;;;5.57;1.75;;;22.10;30.80;;;;;;5065168;28;20052;-48
2023/01/30 11:35:25;;;;;;;3.63;1.38;;;22.10;30.70;;;;;;5062979;28;20044;-50
2023/01/30 11:37:52;;;;;;;4.60;1.80;;;22.10;30.70;;;;;;5062423;28;20367;-50
2023/01/30 11:40:25;;;;;;;4.30;1.48;;;22.10;30.70;;;;;;5059532;28;20032;-46
2023/01/30 11:43:01;;;;;;;5.47;1.40;;;22.10;30.70;;;;;;5057218;28;20045;-49
2023/01/30 11:45:29;;;;;;;6.10;1.73;;;22.20;30.70;;;;;;5058976;28;20025;-51
2023/01/30 11:48:12;;;;;;;6.90;2.05;;;22.20;30.70;;;;;;5060820;28;20021;-48
2023/01/30 11:50:43;;;;;;;5.05;1.77;;;22.20;30.60;;;;;;5059691;28;20371;-53
2023/01/30 11:53:27;;;;;;;4.55;1.70;;;22.20;30.60;;;;;;5065097;28;20032;-52
2023/01/30 11:55:59;;;;;;;5.03;1.73;;;22.20;30.50;;;;;;5060363;28;20048;-49
2023/01/30 11:58:31;;;;;;;5.68;1.75;;;22.20;30.40;;;;;;5060039;28;20033;-49
2023/01/30 12:00:58;;;;;;;5.90;1.98;;;22.30;30.40;;;;;;5060329;28;20032;-50
2023/01/30 12:03:28;;;;;;;5.07;1.65;;;22.30;30.40;;;;;;5063643;28;20020;-53
2023/01/30 12:05:56;;;;;;;5.10;1.80;;;22.20;30.30;;;;;;5056345;28;20110;-51
2023/01/30 12:08:26;;;;;;;5.93;1.98;;;22.30;30.40;;;;;;5054347;28;20155;-51
2023/01/30 12:10:57;;;;;;;5.03;1.75;;;22.20;30.30;;;;;;5041161;28;20636;-50
2023/01/30 12:13:40;;;;;;;4.20;1.50;;;22.20;30.30;;;;;;5054410;28;20061;-48
2023/01/30 12:16:25;;;;;;;6.55;1.70;;;22.20;30.20;;;;;;5054381;28;20040;-56
2023/01/30 12:19:04;;;;;;;5.38;1.70;;;22.20;30.30;;;;;;5037499;28;20179;-49
2023/01/30 12:21:56;;;;;;;4.32;1.42;;;22.20;30.40;;;;;;5055262;28;20113;-51
2023/01/30 12:24:39;;;;;;;5.72;1.85;;;22.20;30.50;;;;;;5072490;28;20040;-51
2023/01/30 12:27:17;;;;;;;5.20;1.50;;;22.20;30.50;;;;;;5057785;28;20029;-49
2023/01/30 12:30:14;;;;;;;5.30;2.00;;;22.20;30.40;;;;;;5054024;28;20070;-49
2023/01/30 12:32:40;;;;;;;6.22;1.63;;;22.20;30.40;;;;;;5072642;28;20032;-46
2023/01/30 12:35:47;;;;;;;3.63;1.45;;;22.10;30.40;;;;;;5073760;28;20457;-49
2023/01/30 12:38:27;;;;;;;6.18;2.00;;;22.10;30.30;;;;;;5053903;28;20068;-50
2023/01/30 12:40:56;;;;;;;4.82;1.73;;;22.10;30.40;;;;;;5054036;28;20110;-51
2023/01/30 12:43:40;;;;;;;5.13;1.75;;;22.10;30.40;;;;;;5053973;28;20033;-48
2023/01/30 12:46:15;;;;;;;5.20;1.60;;;22.10;30.40;;;;;;5058788;28;20029;-49
2023/01/30 12:49:08;;;;;;;6.53;1.70;;;22.00;30.40;;;;;;5057988;28;20029;-48
2023/01/30 12:51:45;;;;;;;5.15;1.75;;;22.10;30.50;;;;;;5057765;28;20025;-51
2023/01/30 12:54:26;;;;;;;4.28;1.70;;;22.00;30.40;;;;;;5059554;28;20036;-48
2023/01/30 12:57:27;;;;;;;4.53;1.70;;;22.00;30.40;;;;;;5054868;28;20029;-50
2023/01/30 13:00:10;;;;;;;6.05;2.05;;;22.00;30.30;;;;;;5068230;28;20060;-51
2023/01/30 13:03:14;;;;;;;5.57;1.92;;;22.00;30.30;;;;;;5057752;28;20037;-46
2023/01/30 13:06:07;;;;;;;4.97;1.60;;;22.00;30.30;;;;;;5072082;28;20021;-47
2023/01/30 13:08:41;;;;;;;6.07;2.00;;;22.00;30.30;;;;;;5062509;28;20021;-50
2023/01/30 13:11:20;;;;;;;6.95;2.10;;;22.00;30.30;;;;;;5068316;28;20052;-49
2023/01/30 13:14:05;;;;;;;6.93;1.75;;;22.00;30.30;;;;;;5056790;28;20041;-52
2023/01/30 13:16:44;;;;;;;4.78;1.73;;;22.00;30.30;;;;;;5059134;28;20352;-50
2023/01/30 13:19:13;;;;;;;4.50;1.75;;;21.90;30.30;;;;;;5056785;28;20116;-51